createdAt,value
2018-09-01T00:00:29.799Z,10.74
2018-09-01T00:01:29.951Z,10.77
2018-09-01T00:02:30.097Z,10.71
2018-09-01T00:03:30.248Z,10.77
2018-09-01T00:04:30.397Z,10.60
2018-09-01T00:05:30.548Z,10.62
2018-09-01T00:06:30.702Z,10.55
2018-09-01T00:07:30.872Z,10.53
2018-09-01T00:08:31.000Z,10.60
2018-09-01T00:09:31.149Z,10.51
2018-09-01T00:10:31.300Z,10.65
2018-09-01T00:11:31.449Z,10.62
2018-09-01T00:12:31.596Z,10.58
2018-09-01T00:13:31.747Z,10.46
2018-09-01T00:14:31.895Z,10.33
2018-09-01T00:15:32.044Z,10.39
2018-09-01T00:16:32.197Z,10.52
2018-09-01T00:17:32.347Z,10.58
2018-09-01T00:18:32.498Z,10.59
2018-09-01T00:19:32.645Z,10.66
2018-09-01T00:20:32.795Z,10.62
2018-09-01T00:21:32.948Z,10.51
2018-09-01T00:22:33.093Z,10.56
2018-09-01T00:23:33.251Z,10.55
2018-09-01T00:24:33.397Z,10.40
2018-09-01T00:25:33.543Z,10.44
2018-09-01T00:26:33.692Z,10.37
2018-09-01T00:27:33.840Z,10.40
2018-09-01T00:28:33.988Z,10.37
2018-09-01T00:29:34.138Z,10.40
2018-09-01T00:30:34.301Z,10.43
2018-09-01T00:31:34.441Z,10.28
2018-09-01T00:32:34.586Z,10.25
2018-09-01T00:33:34.739Z,10.30
2018-09-01T00:34:34.885Z,10.22
2018-09-01T00:35:35.036Z,10.36
2018-09-01T00:36:35.186Z,10.36
2018-09-01T00:37:35.337Z,10.42
2018-09-01T00:38:35.486Z,10.42
2018-09-01T00:39:35.637Z,10.43
2018-09-01T00:40:35.784Z,10.33
2018-09-01T00:41:35.935Z,10.26
2018-09-01T00:42:36.083Z,10.15
2018-09-01T00:43:36.232Z,10.10
2018-09-01T00:44:36.381Z,10.06
2018-09-01T00:45:36.537Z,10.03
2018-09-01T00:46:36.683Z,10.06
2018-09-01T00:47:36.828Z,10.06
2018-09-01T00:48:36.976Z,10.04
2018-09-01T00:49:37.125Z,10.09
2018-09-01T00:50:37.276Z,10.01
2018-09-01T00:51:37.428Z,10.07
2018-09-01T00:52:37.572Z,10.04
2018-09-01T00:53:37.721Z,10.09
2018-09-01T00:54:37.868Z,10.12
2018-09-01T00:55:38.017Z,10.15
2018-09-01T00:56:38.167Z,10.30
2018-09-01T00:57:38.317Z,10.25
2018-09-01T00:58:38.464Z,10.39
2018-09-01T00:59:38.616Z,10.30
2018-09-01T01:00:38.764Z,10.25
2018-09-01T01:01:38.915Z,10.10
2018-09-01T01:02:39.065Z,10.12
2018-09-01T01:03:39.218Z,10.07
2018-09-01T01:04:39.363Z,10.04
2018-09-01T01:05:39.509Z,10.09
2018-09-01T01:06:39.659Z,10.06
2018-09-01T01:07:39.810Z,10.09
2018-09-01T01:08:39.960Z,10.07
2018-09-01T01:09:40.111Z,10.06
2018-09-01T01:10:40.259Z,10.09
2018-09-01T01:11:40.408Z,10.00
2018-09-01T01:12:40.557Z,10.04
2018-09-01T01:13:40.704Z,10.04
2018-09-01T01:14:40.846Z,10.00
2018-09-01T01:15:41.015Z,10.04
2018-09-01T01:16:41.164Z,9.94
2018-09-01T01:17:41.313Z,10.00
2018-09-01T01:18:41.460Z,10.01
2018-09-01T01:19:41.611Z,10.06
2018-09-01T01:20:41.762Z,9.94
2018-09-01T01:21:41.911Z,9.96
2018-09-01T01:22:42.058Z,10.01
2018-09-01T01:23:42.205Z,9.91
2018-09-01T01:24:42.355Z,9.89
2018-09-01T01:25:42.505Z,9.91
2018-09-01T01:26:42.654Z,9.82
2018-09-01T01:27:42.804Z,9.64
2018-09-01T01:28:42.952Z,9.75
2018-09-01T01:29:43.105Z,9.64
2018-09-01T01:30:43.252Z,9.58
2018-09-01T01:31:43.401Z,9.58
2018-09-01T01:32:43.552Z,9.49
2018-09-01T01:33:43.698Z,9.46
2018-09-01T01:34:43.851Z,9.49
2018-09-01T01:35:43.999Z,9.35
2018-09-01T01:36:44.147Z,9.35
2018-09-01T01:37:44.297Z,9.40
2018-09-01T01:38:44.446Z,9.52
2018-09-01T01:39:44.593Z,9.49
2018-09-01T01:40:44.746Z,9.52
2018-09-01T01:41:44.896Z,9.67
2018-09-01T01:42:45.044Z,9.61
2018-09-01T01:43:45.192Z,9.61
2018-09-01T01:44:45.342Z,9.50
2018-09-01T01:45:45.491Z,9.66
2018-09-01T01:46:45.643Z,9.58
2018-09-01T01:47:45.794Z,9.68
2018-09-01T01:48:45.944Z,9.73
2018-09-01T01:49:46.094Z,9.71
2018-09-01T01:50:46.242Z,9.83
2018-09-01T01:51:46.391Z,9.83
2018-09-01T01:52:46.541Z,9.79
2018-09-01T01:53:46.689Z,9.76
2018-09-01T01:54:46.837Z,9.75
2018-09-01T01:55:46.989Z,9.75
2018-09-01T01:56:47.138Z,9.82
2018-09-01T01:57:47.287Z,9.78
2018-09-01T01:58:47.436Z,9.71
2018-09-01T01:59:47.585Z,9.64
2018-09-01T02:00:47.731Z,9.56
2018-09-01T02:01:47.935Z,9.40
2018-09-01T02:02:48.032Z,9.43
2018-09-01T02:03:48.182Z,9.38
2018-09-01T02:04:48.328Z,9.48
2018-09-01T02:05:48.478Z,9.40
2018-09-01T02:06:48.628Z,9.28
2018-09-01T02:07:48.775Z,9.23
2018-09-01T02:08:48.921Z,9.06
2018-09-01T02:09:49.069Z,9.15
2018-09-01T02:10:49.222Z,9.18
2018-09-01T02:11:49.370Z,9.13
2018-09-01T02:12:49.520Z,9.09
2018-09-01T02:13:49.667Z,9.09
2018-09-01T02:14:49.814Z,9.05
2018-09-01T02:15:49.963Z,8.99
2018-09-01T02:16:50.112Z,9.04
2018-09-01T02:17:50.263Z,8.94
2018-09-01T02:18:50.411Z,9.02
2018-09-01T02:19:50.558Z,9.02
2018-09-01T02:20:50.709Z,8.97
2018-09-01T02:21:50.856Z,9.04
2018-09-01T02:22:51.005Z,9.05
2018-09-01T02:23:51.156Z,8.97
2018-09-01T02:24:51.306Z,9.09
2018-09-01T02:25:51.455Z,9.10
2018-09-01T02:26:51.601Z,8.93
2018-09-01T02:27:51.751Z,8.90
2018-09-01T02:28:51.903Z,8.88
2018-09-01T02:29:52.065Z,8.91
2018-09-01T02:30:52.195Z,8.93
2018-09-01T02:31:52.344Z,8.99
2018-09-01T02:32:52.492Z,8.93
2018-09-01T02:33:52.641Z,8.96
2018-09-01T02:34:52.794Z,8.93
2018-09-01T02:35:52.941Z,8.86
2018-09-01T02:36:53.089Z,9.04
2018-09-01T02:37:53.236Z,8.96
2018-09-01T02:38:53.384Z,9.09
2018-09-01T02:39:53.529Z,9.05
2018-09-01T02:40:53.679Z,8.86
2018-09-01T02:41:53.827Z,8.86
2018-09-01T02:42:53.978Z,8.81
2018-09-01T02:43:54.127Z,8.87
2018-09-01T02:44:54.278Z,8.91
2018-09-01T02:45:54.424Z,9.04
2018-09-01T02:46:54.584Z,8.90
2018-09-01T02:47:54.734Z,8.91
2018-09-01T02:48:54.879Z,8.96
2018-09-01T02:49:55.027Z,8.88
2018-09-01T02:50:55.176Z,8.88
2018-09-01T02:51:55.324Z,8.76
2018-09-01T02:52:55.473Z,8.84
2018-09-01T02:53:55.625Z,8.81
2018-09-01T02:54:55.772Z,8.78
2018-09-01T02:55:55.924Z,8.78
2018-09-01T02:56:56.072Z,8.78
2018-09-01T02:57:56.221Z,8.84
2018-09-01T02:58:56.370Z,8.83
2018-09-01T02:59:56.520Z,8.81
2018-09-01T03:00:56.673Z,8.78
2018-09-01T03:01:56.814Z,8.75
2018-09-01T03:02:56.964Z,8.71
2018-09-01T03:03:57.112Z,8.66
2018-09-01T03:04:57.259Z,8.51
2018-09-01T03:05:57.406Z,8.55
2018-09-01T03:06:57.556Z,8.65
2018-09-01T03:07:57.738Z,8.73
2018-09-01T03:08:57.857Z,8.75
2018-09-01T03:09:57.999Z,8.66
2018-09-01T03:10:58.140Z,8.60
2018-09-01T03:11:58.297Z,8.50
2018-09-01T03:12:58.445Z,8.66
2018-09-01T03:13:58.594Z,8.51
2018-09-01T03:14:58.744Z,8.51
2018-09-01T03:15:58.893Z,8.50
2018-09-01T03:16:59.037Z,8.33
2018-09-01T03:17:59.187Z,8.44
2018-09-01T03:18:59.335Z,8.33
2018-09-01T03:19:59.486Z,8.22
2018-09-01T03:20:59.633Z,8.29
2018-09-01T03:21:59.779Z,8.26
2018-09-01T03:22:59.929Z,8.26
2018-09-01T03:24:00.082Z,8.42
2018-09-01T03:25:00.231Z,8.36
2018-09-01T03:26:00.382Z,8.36
2018-09-01T03:27:00.524Z,8.50
2018-09-01T03:28:00.673Z,8.40
2018-09-01T03:29:00.820Z,8.32
2018-09-01T03:30:00.965Z,8.26
2018-09-01T03:31:01.116Z,8.32
2018-09-01T03:32:01.265Z,8.35
2018-09-01T03:33:01.414Z,8.29
2018-09-01T03:34:01.561Z,8.29
2018-09-01T03:35:01.715Z,8.22
2018-09-01T03:36:01.859Z,8.29
2018-09-01T03:37:02.007Z,8.29
2018-09-01T03:38:02.151Z,8.14
2018-09-01T03:39:02.300Z,8.28
2018-09-01T03:40:02.448Z,8.28
2018-09-01T03:41:02.599Z,8.18
2018-09-01T03:42:02.746Z,8.12
2018-09-01T03:43:02.896Z,8.25
2018-09-01T03:44:03.043Z,8.14
2018-09-01T03:45:03.191Z,8.26
2018-09-01T03:46:03.340Z,8.18
2018-09-01T03:47:03.488Z,8.11
2018-09-01T03:48:03.636Z,8.18
2018-09-01T03:49:03.785Z,8.08
2018-09-01T03:50:03.933Z,8.04
2018-09-01T03:51:04.080Z,8.10
2018-09-01T03:52:04.228Z,8.11
2018-09-01T03:53:04.376Z,8.10
2018-09-01T03:54:04.525Z,8.14
2018-09-01T03:55:04.673Z,8.07
2018-09-01T03:56:04.824Z,8.04
2018-09-01T03:57:04.973Z,8.15
2018-09-01T03:58:05.121Z,8.18
2018-09-01T03:59:05.264Z,8.11
2018-09-01T04:00:05.413Z,8.21
2018-09-01T04:01:05.561Z,8.28
2018-09-01T04:02:05.713Z,8.14
2018-09-01T04:03:05.859Z,8.18
2018-09-01T04:04:06.007Z,8.20
2018-09-01T04:05:06.154Z,8.02
2018-09-01T04:06:06.301Z,8.11
2018-09-01T04:07:06.452Z,8.14
2018-09-01T04:08:06.599Z,8.07
2018-09-01T04:09:06.748Z,8.04
2018-09-01T04:10:06.896Z,7.97
2018-09-01T04:11:07.044Z,8.03
2018-09-01T04:12:07.195Z,8.10
2018-09-01T04:13:07.343Z,8.04
2018-09-01T04:14:07.491Z,8.08
2018-09-01T04:15:07.641Z,8.00
2018-09-01T04:16:07.790Z,8.10
2018-09-01T04:17:07.936Z,8.12
2018-09-01T04:18:08.085Z,8.07
2018-09-01T04:19:08.231Z,8.17
2018-09-01T04:20:08.380Z,8.18
2018-09-01T04:21:08.529Z,8.15
2018-09-01T04:22:08.678Z,8.02
2018-09-01T04:23:08.826Z,8.08
2018-09-01T04:24:08.977Z,7.97
2018-09-01T04:25:09.125Z,8.02
2018-09-01T04:26:09.273Z,7.96
2018-09-01T04:27:09.423Z,8.08
2018-09-01T04:28:09.571Z,7.89
2018-09-01T04:29:09.718Z,7.87
2018-09-01T04:30:09.868Z,8.00
2018-09-01T04:31:10.018Z,7.96
2018-09-01T04:32:10.201Z,8.03
2018-09-01T04:33:10.311Z,8.04
2018-09-01T04:34:10.463Z,8.04
2018-09-01T04:35:10.610Z,8.07
2018-09-01T04:36:10.760Z,7.96
2018-09-01T04:37:10.907Z,8.03
2018-09-01T04:38:11.055Z,7.94
2018-09-01T04:39:11.203Z,7.99
2018-09-01T04:40:11.349Z,8.07
2018-09-01T04:41:11.503Z,8.11
2018-09-01T04:42:11.655Z,8.08
2018-09-01T04:43:11.799Z,8.08
2018-09-01T04:44:11.947Z,8.07
2018-09-01T04:45:12.096Z,8.10
2018-09-01T04:46:12.243Z,8.08
2018-09-01T04:47:12.455Z,8.02
2018-09-01T04:48:12.543Z,7.87
2018-09-01T04:49:12.690Z,7.87
2018-09-01T04:50:12.841Z,7.94
2018-09-01T04:51:12.987Z,7.79
2018-09-01T04:52:13.134Z,7.81
2018-09-01T04:53:13.282Z,7.94
2018-09-01T04:54:13.432Z,7.89
2018-09-01T04:55:13.580Z,7.82
2018-09-01T04:56:13.729Z,7.72
2018-09-01T04:57:13.879Z,7.84
2018-09-01T04:58:14.028Z,7.85
2018-09-01T04:59:14.174Z,7.94
2018-09-01T05:00:14.325Z,7.90
2018-09-01T05:01:14.510Z,7.84
2018-09-01T05:02:14.622Z,7.89
2018-09-01T05:03:14.769Z,7.92
2018-09-01T05:04:14.915Z,7.82
2018-09-01T05:05:15.065Z,7.89
2018-09-01T05:06:15.211Z,7.87
2018-09-01T05:07:15.363Z,7.79
2018-09-01T05:08:15.511Z,7.85
2018-09-01T05:09:15.662Z,7.93
2018-09-01T05:10:15.807Z,7.94
2018-09-01T05:11:15.958Z,7.92
2018-09-01T05:12:16.106Z,7.75
2018-09-01T05:13:16.255Z,7.92
2018-09-01T05:14:16.404Z,7.87
2018-09-01T05:15:16.556Z,7.87
2018-09-01T05:16:16.702Z,7.84
2018-09-01T05:17:16.850Z,7.81
2018-09-01T05:18:17.000Z,7.85
2018-09-01T05:19:17.149Z,7.89
2018-09-01T05:20:17.296Z,7.94
2018-09-01T05:21:17.446Z,7.90
2018-09-01T05:22:17.598Z,7.92
2018-09-01T05:23:17.743Z,7.92
2018-09-01T05:24:17.892Z,7.84
2018-09-01T05:25:18.039Z,7.90
2018-09-01T05:26:18.189Z,7.94
2018-09-01T05:27:18.340Z,8.02
2018-09-01T05:28:18.489Z,7.93
2018-09-01T05:29:18.639Z,7.96
2018-09-01T05:30:18.790Z,7.96
2018-09-01T05:31:18.939Z,7.93
2018-09-01T05:32:19.089Z,7.94
2018-09-01T05:33:19.243Z,7.93
2018-09-01T05:34:19.395Z,8.08
2018-09-01T05:35:19.539Z,8.08
2018-09-01T05:36:19.685Z,8.18
2018-09-01T05:37:19.833Z,8.26
2018-09-01T05:38:19.982Z,8.29
2018-09-01T05:39:20.132Z,8.25
2018-09-01T05:40:20.278Z,8.20
2018-09-01T05:41:20.427Z,8.08
2018-09-01T05:42:20.581Z,8.29
2018-09-01T05:43:20.727Z,8.21
2018-09-01T05:44:20.873Z,8.25
2018-09-01T05:45:21.024Z,8.25
2018-09-01T05:46:21.172Z,8.29
2018-09-01T05:47:21.321Z,8.25
2018-09-01T05:48:21.470Z,8.29
2018-09-01T05:49:21.618Z,8.33
2018-09-01T05:50:21.765Z,8.29
2018-09-01T05:51:21.915Z,8.25
2018-09-01T05:52:22.063Z,8.25
2018-09-01T05:53:22.218Z,8.26
2018-09-01T05:54:22.360Z,8.33
2018-09-01T05:55:22.506Z,8.35
2018-09-01T05:56:22.656Z,8.36
2018-09-01T05:57:22.804Z,8.48
2018-09-01T05:58:22.953Z,8.51
2018-09-01T05:59:23.102Z,8.66
2018-09-01T06:00:23.263Z,8.65
2018-09-01T06:01:23.399Z,8.63
2018-09-01T06:02:23.548Z,8.65
2018-09-01T06:03:23.697Z,8.69
2018-09-01T06:04:23.845Z,8.55
2018-09-01T06:05:23.994Z,8.65
2018-09-01T06:06:24.215Z,8.68
2018-09-01T06:07:24.291Z,8.65
2018-09-01T06:08:24.442Z,8.53
2018-09-01T06:09:24.591Z,8.60
2018-09-01T06:10:24.742Z,8.68
2018-09-01T06:11:24.894Z,8.75
2018-09-01T06:12:25.039Z,8.69
2018-09-01T06:13:25.190Z,8.66
2018-09-01T06:14:25.342Z,8.71
2018-09-01T06:15:25.491Z,8.71
2018-09-01T06:16:25.642Z,8.81
2018-09-01T06:17:25.815Z,8.78
2018-09-01T06:18:25.942Z,8.83
2018-09-01T06:19:26.090Z,8.91
2018-09-01T06:20:26.242Z,8.96
2018-09-01T06:21:26.389Z,8.94
2018-09-01T06:22:26.544Z,9.05
2018-09-01T06:23:26.690Z,9.10
2018-09-01T06:24:26.838Z,9.16
2018-09-01T06:25:27.015Z,9.28
2018-09-01T06:26:27.135Z,9.39
2018-09-01T06:27:27.288Z,9.28
2018-09-01T06:28:27.437Z,9.27
2018-09-01T06:29:27.585Z,9.27
2018-09-01T06:30:27.739Z,9.30
2018-09-01T06:31:27.885Z,9.32
2018-09-01T06:32:28.033Z,9.38
2018-09-01T06:33:28.184Z,9.45
2018-09-01T06:34:28.334Z,9.56
2018-09-01T06:35:28.484Z,9.53
2018-09-01T06:36:28.630Z,9.63
2018-09-01T06:37:28.791Z,9.71
2018-09-01T06:38:28.929Z,9.68
2018-09-01T06:39:29.080Z,9.79
2018-09-01T06:40:29.226Z,9.82
2018-09-01T06:41:29.380Z,9.73
2018-09-01T06:42:29.527Z,9.71
2018-09-01T06:43:29.676Z,9.68
2018-09-01T06:44:29.841Z,9.70
2018-09-01T06:45:29.989Z,9.68
2018-09-01T06:46:30.139Z,9.60
2018-09-01T06:47:30.287Z,9.58
2018-09-01T06:48:30.438Z,9.63
2018-09-01T06:49:30.585Z,9.43
2018-09-01T06:50:30.736Z,9.50
2018-09-01T06:51:30.907Z,9.52
2018-09-01T06:52:31.037Z,9.52
2018-09-01T06:53:31.187Z,9.49
2018-09-01T06:54:31.333Z,9.67
2018-09-01T06:55:31.491Z,9.46
2018-09-01T06:56:31.639Z,9.53
2018-09-01T06:57:31.786Z,9.52
2018-09-01T06:58:31.934Z,9.48
2018-09-01T06:59:32.092Z,9.46
2018-09-01T07:00:32.235Z,9.58
2018-09-01T07:01:32.387Z,9.64
2018-09-01T07:02:32.538Z,9.71
2018-09-01T07:03:32.687Z,9.78
2018-09-01T07:04:32.838Z,9.85
2018-09-01T07:05:32.989Z,9.89
2018-09-01T07:06:33.143Z,9.97
2018-09-01T07:07:33.289Z,10.06
2018-09-01T07:08:33.470Z,9.89
2018-09-01T07:09:33.596Z,10.07
2018-09-01T07:10:33.739Z,10.14
2018-09-01T07:11:33.888Z,10.19
2018-09-01T07:12:34.039Z,10.22
2018-09-01T07:13:34.190Z,10.12
2018-09-01T07:14:34.344Z,10.32
2018-09-01T07:15:34.493Z,10.51
2018-09-01T07:16:34.640Z,10.65
2018-09-01T07:17:34.793Z,10.62
2018-09-01T07:18:34.943Z,10.77
2018-09-01T07:19:35.093Z,10.83
2018-09-01T07:20:35.243Z,10.88
2018-09-01T07:21:35.394Z,10.92
2018-09-01T07:22:35.541Z,11.02
2018-09-01T07:23:35.691Z,11.24
2018-09-01T07:24:35.843Z,11.27
2018-09-01T07:25:35.994Z,11.13
2018-09-01T07:26:36.144Z,11.29
2018-09-01T07:27:36.294Z,11.41
2018-09-01T07:28:36.445Z,11.43
2018-09-01T07:29:36.596Z,11.49
2018-09-01T07:30:36.833Z,11.64
2018-09-01T07:31:37.277Z,11.64
2018-09-01T07:32:37.045Z,11.62
2018-09-01T07:33:37.195Z,11.71
2018-09-01T07:34:37.346Z,11.82
2018-09-01T07:35:37.496Z,11.82
2018-09-01T07:36:37.645Z,11.87
2018-09-01T07:37:37.796Z,12.02
2018-09-01T07:38:37.949Z,12.13
2018-09-01T07:39:38.100Z,12.04
2018-09-01T07:40:38.249Z,12.09
2018-09-01T07:41:38.398Z,12.15
2018-09-01T07:42:38.549Z,12.19
2018-09-01T07:43:38.715Z,12.16
2018-09-01T07:44:38.853Z,12.16
2018-09-01T07:45:39.003Z,12.31
2018-09-01T07:46:39.154Z,12.39
2018-09-01T07:47:39.307Z,12.44
2018-09-01T07:48:39.456Z,12.60
2018-09-01T07:49:39.611Z,12.66
2018-09-01T07:50:39.758Z,12.71
2018-09-01T07:51:39.909Z,12.84
2018-09-01T07:52:40.059Z,12.95
2018-09-01T07:53:40.212Z,12.95
2018-09-01T07:54:40.478Z,12.87
2018-09-01T07:55:40.513Z,13.06
2018-09-01T07:56:40.674Z,13.12
2018-09-01T07:57:40.821Z,13.32
2018-09-01T07:58:40.968Z,13.47
2018-09-01T07:59:41.118Z,13.54
2018-09-01T08:00:41.267Z,13.69
2018-09-01T08:01:41.420Z,13.81
2018-09-01T08:02:41.569Z,13.79
2018-09-01T08:03:41.721Z,13.95
2018-09-01T08:04:41.873Z,14.09
2018-09-01T08:05:42.025Z,14.17
2018-09-01T08:06:42.180Z,14.34
2018-09-01T08:07:42.337Z,14.21
2018-09-01T08:08:42.488Z,14.39
2018-09-01T08:09:42.640Z,14.56
2018-09-01T08:10:42.796Z,14.29
2018-09-01T08:11:42.947Z,14.34
2018-09-01T08:12:43.101Z,14.50
2018-09-01T08:13:43.285Z,14.54
2018-09-01T08:14:43.458Z,14.47
2018-09-01T08:15:43.555Z,14.68
2018-09-01T08:16:43.713Z,14.64
2018-09-01T08:17:43.860Z,14.91
2018-09-01T08:18:44.021Z,14.87
2018-09-01T08:19:44.171Z,15.02
2018-09-01T08:20:44.322Z,14.80
2018-09-01T08:21:44.474Z,14.90
2018-09-01T08:22:44.629Z,14.93
2018-09-01T08:23:44.781Z,15.06
2018-09-01T08:24:44.930Z,15.20
2018-09-01T08:25:45.083Z,15.42
2018-09-01T08:26:45.237Z,15.52
2018-09-01T08:27:45.400Z,15.46
2018-09-01T08:28:45.543Z,15.56
2018-09-01T08:29:45.695Z,15.70
2018-09-01T08:30:45.850Z,15.75
2018-09-01T08:31:46.001Z,15.63
2018-09-01T08:32:46.152Z,15.60
2018-09-01T08:33:46.399Z,15.43
2018-09-01T08:34:46.462Z,15.60
2018-09-01T08:35:46.617Z,15.68
2018-09-01T08:36:46.772Z,15.84
2018-09-01T08:37:46.921Z,15.93
2018-09-01T08:38:47.075Z,15.92
2018-09-01T08:39:47.227Z,16.03
2018-09-01T08:40:47.380Z,15.97
2018-09-01T08:41:47.533Z,16.07
2018-09-01T08:42:47.685Z,16.23
2018-09-01T08:43:47.838Z,16.20
2018-09-01T08:44:47.992Z,16.26
2018-09-01T08:45:48.144Z,16.35
2018-09-01T08:46:48.303Z,16.42
2018-09-01T08:47:48.453Z,16.53
2018-09-01T08:48:48.606Z,16.45
2018-09-01T08:49:48.758Z,16.56
2018-09-01T08:50:48.912Z,16.52
2018-09-01T08:51:49.065Z,16.59
2018-09-01T08:52:49.219Z,16.59
2018-09-01T08:53:49.374Z,16.63
2018-09-01T08:54:49.531Z,16.77
2018-09-01T08:55:49.677Z,16.86
2018-09-01T08:56:49.834Z,17.03
2018-09-01T08:57:49.986Z,17.06
2018-09-01T08:58:50.142Z,17.15
2018-09-01T08:59:50.295Z,17.15
2018-09-01T09:00:50.448Z,17.28
2018-09-01T09:01:50.604Z,17.14
2018-09-01T09:02:50.755Z,17.22
2018-09-01T09:03:50.911Z,17.26
2018-09-01T09:04:51.064Z,17.26
2018-09-01T09:05:51.219Z,17.15
2018-09-01T09:06:51.374Z,17.28
2018-09-01T09:07:51.524Z,17.30
2018-09-01T09:08:51.677Z,17.25
2018-09-01T09:09:51.832Z,17.10
2018-09-01T09:10:51.987Z,17.14
2018-09-01T09:11:52.141Z,17.28
2018-09-01T09:12:52.296Z,17.17
2018-09-01T09:13:52.452Z,17.29
2018-09-01T09:14:52.605Z,17.40
2018-09-01T09:15:52.757Z,17.57
2018-09-01T09:16:52.912Z,17.59
2018-09-01T09:17:53.067Z,17.63
2018-09-01T09:18:53.222Z,17.50
2018-09-01T09:19:53.375Z,17.63
2018-09-01T09:20:53.531Z,17.74
2018-09-01T09:21:53.682Z,17.84
2018-09-01T09:22:53.835Z,17.85
2018-09-01T09:23:53.993Z,17.73
2018-09-01T09:24:54.145Z,17.64
2018-09-01T09:25:54.298Z,17.73
2018-09-01T09:26:54.452Z,17.89
2018-09-01T09:27:54.606Z,17.95
2018-09-01T09:28:54.761Z,17.92
2018-09-01T09:29:54.915Z,18.06
2018-09-01T09:30:55.069Z,18.18
2018-09-01T09:31:55.222Z,18.28
2018-09-01T09:32:55.380Z,18.24
2018-09-01T09:33:55.533Z,18.17
2018-09-01T09:34:55.682Z,18.28
2018-09-01T09:35:55.838Z,18.15
2018-09-01T09:36:55.995Z,18.13
2018-09-01T09:37:56.145Z,18.15
2018-09-01T09:38:56.302Z,18.24
2018-09-01T09:39:56.455Z,18.43
2018-09-01T09:40:56.611Z,18.57
2018-09-01T09:41:56.819Z,18.67
2018-09-01T09:42:56.920Z,18.82
2018-09-01T09:43:57.072Z,18.84
2018-09-01T09:44:57.229Z,18.82
2018-09-01T09:45:57.385Z,19.02
2018-09-01T09:46:57.536Z,18.97
2018-09-01T09:47:57.692Z,19.17
2018-09-01T09:48:57.846Z,18.95
2018-09-01T09:49:58.002Z,19.06
2018-09-01T09:50:58.158Z,18.98
2018-09-01T09:51:58.314Z,18.99
2018-09-01T09:52:58.487Z,18.90
2018-09-01T09:53:58.624Z,19.01
2018-09-01T09:54:58.777Z,18.95
2018-09-01T09:55:58.939Z,18.99
2018-09-01T09:56:59.089Z,19.17
2018-09-01T09:57:59.246Z,18.99
2018-09-01T09:58:59.400Z,19.11
2018-09-01T09:59:59.556Z,19.24
2018-09-01T10:00:59.773Z,19.28
2018-09-01T10:01:59.868Z,19.42
2018-09-01T10:03:00.025Z,19.42
2018-09-01T10:04:00.212Z,19.72
2018-09-01T10:05:00.364Z,19.76
2018-09-01T10:06:00.538Z,19.78
2018-09-01T10:07:00.674Z,19.61
2018-09-01T10:08:00.832Z,19.58
2018-09-01T10:09:00.991Z,19.61
2018-09-01T10:10:01.143Z,19.72
2018-09-01T10:11:01.332Z,19.78
2018-09-01T10:12:01.454Z,19.60
2018-09-01T10:13:01.606Z,19.76
2018-09-01T10:14:01.761Z,19.93
2018-09-01T10:15:01.914Z,19.86
2018-09-01T10:16:02.080Z,19.98
2018-09-01T10:17:02.225Z,20.09
2018-09-01T10:18:02.381Z,20.16
2018-09-01T10:19:02.540Z,20.27
2018-09-01T10:20:02.726Z,20.53
2018-09-01T10:21:02.846Z,20.59
2018-09-01T10:22:02.999Z,20.46
2018-09-01T10:23:03.158Z,20.65
2018-09-01T10:24:03.312Z,20.42
2018-09-01T10:25:03.468Z,20.28
2018-09-01T10:26:03.626Z,20.49
2018-09-01T10:27:03.814Z,20.41
2018-09-01T10:28:03.944Z,20.51
2018-09-01T10:29:04.099Z,20.72
2018-09-01T10:30:04.275Z,20.87
2018-09-01T10:31:04.414Z,20.90
2018-09-01T10:32:04.567Z,20.89
2018-09-01T10:33:04.726Z,20.71
2018-09-01T10:34:04.900Z,20.90
2018-09-01T10:35:05.037Z,21.05
2018-09-01T10:36:05.192Z,21.24
2018-09-01T10:37:05.348Z,21.13
2018-09-01T10:38:05.502Z,21.08
2018-09-01T10:39:05.661Z,21.01
2018-09-01T10:40:05.817Z,21.16
2018-09-01T10:41:05.973Z,20.98
2018-09-01T10:42:06.128Z,20.96
2018-09-01T10:43:06.287Z,20.99
2018-09-01T10:44:06.443Z,20.98
2018-09-01T10:45:06.599Z,21.21
2018-09-01T10:46:06.757Z,21.29
2018-09-01T10:47:06.911Z,21.57
2018-09-01T10:48:07.080Z,21.54
2018-09-01T10:49:07.276Z,21.20
2018-09-01T10:50:07.379Z,21.17
2018-09-01T10:51:07.537Z,21.26
2018-09-01T10:52:07.692Z,21.27
2018-09-01T10:53:07.849Z,21.48
2018-09-01T10:54:08.007Z,21.41
2018-09-01T10:55:08.165Z,21.16
2018-09-01T10:56:08.323Z,21.34
2018-09-01T10:57:08.484Z,21.51
2018-09-01T10:58:08.642Z,21.27
2018-09-01T10:59:08.989Z,21.41
2018-09-01T11:00:08.957Z,21.51
2018-09-01T11:01:09.112Z,21.60
2018-09-01T11:02:09.268Z,21.78
2018-09-01T11:03:09.425Z,21.78
2018-09-01T11:04:09.581Z,21.85
2018-09-01T11:05:09.807Z,21.99
2018-09-01T11:06:09.901Z,21.97
2018-09-01T11:07:10.058Z,21.95
2018-09-01T11:08:10.214Z,21.72
2018-09-01T11:09:10.375Z,21.66
2018-09-01T11:10:10.529Z,21.67
2018-09-01T11:11:10.685Z,21.75
2018-09-01T11:12:10.842Z,21.69
2018-09-01T11:13:11.001Z,21.35
2018-09-01T11:14:11.155Z,21.16
2018-09-01T11:15:11.315Z,21.38
2018-09-01T11:16:11.479Z,21.41
2018-09-01T11:17:11.630Z,21.53
2018-09-01T11:18:11.786Z,21.27
2018-09-01T11:19:11.944Z,21.36
2018-09-01T11:20:12.154Z,21.53
2018-09-01T11:21:12.262Z,21.45
2018-09-01T11:22:12.420Z,21.16
2018-09-01T11:23:12.578Z,21.46
2018-09-01T11:24:12.736Z,21.41
2018-09-01T11:25:12.892Z,21.48
2018-09-01T11:26:13.050Z,21.44
2018-09-01T11:27:13.217Z,21.74
2018-09-01T11:28:13.455Z,21.95
2018-09-01T11:29:13.522Z,22.02
2018-09-01T11:30:13.680Z,22.02
2018-09-01T11:31:13.833Z,21.94
2018-09-01T11:32:14.006Z,21.92
2018-09-01T11:33:14.148Z,21.92
2018-09-01T11:34:14.307Z,21.94
2018-09-01T11:35:14.463Z,22.09
2018-09-01T11:36:14.621Z,22.16
2018-09-01T11:37:14.779Z,22.13
2018-09-01T11:38:14.933Z,22.04
2018-09-01T11:39:15.091Z,21.99
2018-09-01T11:40:15.247Z,22.10
2018-09-01T11:41:15.405Z,21.98
2018-09-01T11:42:15.563Z,21.97
2018-09-01T11:43:15.772Z,22.09
2018-09-01T11:44:15.877Z,22.12
2018-09-01T11:45:16.039Z,21.94
2018-09-01T11:46:16.193Z,21.81
2018-09-01T11:47:16.351Z,21.74
2018-09-01T11:48:16.515Z,21.90
2018-09-01T11:49:16.671Z,21.97
2018-09-01T11:50:16.829Z,21.53
2018-09-01T11:51:16.988Z,21.30
2018-09-01T11:52:17.146Z,21.13
2018-09-01T11:53:17.394Z,21.30
2018-09-01T11:54:17.468Z,21.26
2018-09-01T11:55:17.628Z,21.51
2018-09-01T11:56:17.789Z,21.79
2018-09-01T11:57:17.941Z,21.76
2018-09-01T11:58:18.119Z,22.02
2018-09-01T11:59:18.251Z,22.19
2018-09-01T12:00:18.405Z,22.28
2018-09-01T12:01:18.562Z,22.20
2018-09-01T12:02:18.797Z,21.97
2018-09-01T12:03:18.876Z,21.99
2018-09-01T12:04:19.035Z,22.19
2018-09-01T12:05:19.192Z,21.94
2018-09-01T12:06:19.352Z,22.01
2018-09-01T12:07:19.506Z,21.99
2018-09-01T12:08:19.664Z,22.04
2018-09-01T12:09:19.834Z,22.13
2018-09-01T12:10:19.985Z,22.31
2018-09-01T12:11:20.144Z,22.43
2018-09-01T12:12:20.294Z,22.57
2018-09-01T12:13:20.457Z,22.67
2018-09-01T12:14:20.615Z,22.82
2018-09-01T12:15:20.799Z,22.71
2018-09-01T12:16:20.931Z,22.77
2018-09-01T12:17:21.089Z,22.82
2018-09-01T12:18:21.286Z,22.78
2018-09-01T12:19:21.400Z,22.43
2018-09-01T12:20:21.561Z,22.47
2018-09-01T12:21:21.719Z,22.29
2018-09-01T12:22:21.968Z,22.31
2018-09-01T12:23:22.040Z,22.34
2018-09-01T12:24:22.196Z,22.52
2018-09-01T12:25:22.353Z,22.22
2018-09-01T12:26:22.512Z,22.01
2018-09-01T12:27:22.668Z,22.01
2018-09-01T12:28:22.884Z,22.10
2018-09-01T12:29:22.985Z,21.97
2018-09-01T12:30:23.143Z,22.02
2018-09-01T12:31:23.308Z,22.17
2018-09-01T12:32:23.464Z,22.57
2018-09-01T12:33:23.619Z,22.56
2018-09-01T12:34:23.779Z,22.62
2018-09-01T12:35:23.972Z,22.78
2018-09-01T12:36:24.156Z,22.90
2018-09-01T12:37:24.289Z,22.83
2018-09-01T12:38:24.450Z,22.86
2018-09-01T12:39:24.609Z,22.77
2018-09-01T12:40:24.767Z,22.86
2018-09-01T12:41:24.927Z,22.74
2018-09-01T12:42:25.087Z,22.72
2018-09-01T12:43:25.244Z,22.86
2018-09-01T12:44:25.404Z,23.08
2018-09-01T12:45:25.561Z,23.19
2018-09-01T12:46:25.725Z,22.99
2018-09-01T12:47:25.877Z,23.08
2018-09-01T12:48:26.038Z,23.20
2018-09-01T12:49:26.194Z,23.53
2018-09-01T12:50:26.357Z,23.55
2018-09-01T12:51:26.516Z,23.70
2018-09-01T12:52:26.683Z,23.50
2018-09-01T12:53:26.834Z,23.67
2018-09-01T12:54:26.993Z,23.64
2018-09-01T12:55:27.146Z,23.57
2018-09-01T12:56:27.310Z,23.45
2018-09-01T12:57:27.470Z,22.90
2018-09-01T12:58:27.633Z,23.01
2018-09-01T12:59:27.788Z,22.80
2018-09-01T13:00:27.949Z,22.52
2018-09-01T13:01:28.111Z,22.62
2018-09-01T13:02:28.265Z,22.44
2018-09-01T13:03:28.425Z,22.19
2018-09-01T13:04:28.594Z,22.50
2018-09-01T13:05:28.748Z,22.84